sensor_id;sensor_type;location;lat;lon;timestamp;pressure;altitude;pressure_sealevel;temperature
41593;BMP180;28026;48.562;14.440;2023-05-07T00:01:21;93810.00;;;20.70
41593;BMP180;28026;48.562;14.440;2023-05-07T00:03:52;93805.00;;;20.60
41593;BMP180;28026;48.562;14.440;2023-05-07T00:06:23;93810.00;;;20.60
41593;BMP180;28026;48.562;14.440;2023-05-07T00:08:55;93809.00;;;20.50
41593;BMP180;28026;48.562;14.440;2023-05-07T00:11:27;93810.00;;;20.50
41593;BMP180;28026;48.562;14.440;2023-05-07T00:13:58;93802.00;;;20.40
41593;BMP180;28026;48.562;14.440;2023-05-07T00:16:30;93813.00;;;20.40
41593;BMP180;28026;48.562;14.440;2023-05-07T00:19:00;93814.00;;;20.30
41593;BMP180;28026;48.562;14.440;2023-05-07T00:21:31;93816.00;;;20.20
41593;BMP180;28026;48.562;14.440;2023-05-07T00:24:02;93817.00;;;20.20
41593;BMP180;28026;48.562;14.440;2023-05-07T00:26:33;93824.00;;;20.20
41593;BMP180;28026;48.562;14.440;2023-05-07T00:29:04;93817.00;;;20.10
41593;BMP180;28026;48.562;14.440;2023-05-07T00:31:35;93809.00;;;20.00
41593;BMP180;28026;48.562;14.440;2023-05-07T00:34:06;93828.00;;;20.00
41593;BMP180;28026;48.562;14.440;2023-05-07T00:36:36;93820.00;;;19.90
41593;BMP180;28026;48.562;14.440;2023-05-07T00:39:07;93819.00;;;19.90
41593;BMP180;28026;48.562;14.440;2023-05-07T00:41:38;93818.00;;;19.80
41593;BMP180;28026;48.562;14.440;2023-05-07T00:44:09;93818.00;;;19.70
41593;BMP180;28026;48.562;14.440;2023-05-07T00:46:40;93819.00;;;19.70
41593;BMP180;28026;48.562;14.440;2023-05-07T00:49:11;93815.00;;;19.70
41593;BMP180;28026;48.562;14.440;2023-05-07T00:51:42;93823.00;;;19.70
41593;BMP180;28026;48.562;14.440;2023-05-07T00:54:13;93827.00;;;19.70
41593;BMP180;28026;48.562;14.440;2023-05-07T00:56:44;93803.00;;;19.60
41593;BMP180;28026;48.562;14.440;2023-05-07T00:59:15;93818.00;;;19.60
41593;BMP180;28026;48.562;14.440;2023-05-07T01:01:46;93818.00;;;19.50
41593;BMP180;28026;48.562;14.440;2023-05-07T01:04:17;93820.00;;;19.50
41593;BMP180;28026;48.562;14.440;2023-05-07T01:06:49;93824.00;;;19.50
41593;BMP180;28026;48.562;14.440;2023-05-07T01:09:20;93829.00;;;19.60
41593;BMP180;28026;48.562;14.440;2023-05-07T01:11:51;93817.00;;;19.60
41593;BMP180;28026;48.562;14.440;2023-05-07T01:14:23;93824.00;;;19.60
41593;BMP180;28026;48.562;14.440;2023-05-07T01:16:55;93825.00;;;19.60
41593;BMP180;28026;48.562;14.440;2023-05-07T01:19:28;93830.00;;;19.60
41593;BMP180;28026;48.562;14.440;2023-05-07T01:22:07;93827.00;;;19.60
41593;BMP180;28026;48.562;14.440;2023-05-07T01:24:39;93837.00;;;19.60
41593;BMP180;28026;48.562;14.440;2023-05-07T01:27:10;93826.00;;;19.60
41593;BMP180;28026;48.562;14.440;2023-05-07T01:29:41;93824.00;;;19.60
41593;BMP180;28026;48.562;14.440;2023-05-07T01:32:13;93824.00;;;19.60
41593;BMP180;28026;48.562;14.440;2023-05-07T01:34:46;93827.00;;;19.60
41593;BMP180;28026;48.562;14.440;2023-05-07T01:37:20;93823.00;;;19.60
41593;BMP180;28026;48.562;14.440;2023-05-07T01:39:53;93841.00;;;19.60
41593;BMP180;28026;48.562;14.440;2023-05-07T01:42:24;93835.00;;;19.50
41593;BMP180;28026;48.562;14.440;2023-05-07T01:44:55;93841.00;;;19.50
41593;BMP180;28026;48.562;14.440;2023-05-07T01:47:26;93829.00;;;19.60
41593;BMP180;28026;48.562;14.440;2023-05-07T01:49:58;93825.00;;;19.50
41593;BMP180;28026;48.562;14.440;2023-05-07T01:52:29;93838.00;;;19.50
41593;BMP180;28026;48.562;14.440;2023-05-07T01:55:00;93838.00;;;19.50
41593;BMP180;28026;48.562;14.440;2023-05-07T01:57:31;93834.00;;;19.50
41593;BMP180;28026;48.562;14.440;2023-05-07T02:00:02;93826.00;;;19.50
41593;BMP180;28026;48.562;14.440;2023-05-07T02:02:35;93823.00;;;19.60
41593;BMP180;28026;48.562;14.440;2023-05-07T02:05:06;93827.00;;;19.60
41593;BMP180;28026;48.562;14.440;2023-05-07T02:07:37;93827.00;;;19.60
41593;BMP180;28026;48.562;14.440;2023-05-07T02:10:08;93823.00;;;19.60
41593;BMP180;28026;48.562;14.440;2023-05-07T02:12:40;93833.00;;;19.60
41593;BMP180;28026;48.562;14.440;2023-05-07T02:15:10;93830.00;;;19.60
41593;BMP180;28026;48.562;14.440;2023-05-07T02:18:05;93825.00;;;19.50
41593;BMP180;28026;48.562;14.440;2023-05-07T02:20:37;93830.00;;;19.50
41593;BMP180;28026;48.562;14.440;2023-05-07T02:23:08;93829.00;;;19.60
41593;BMP180;28026;48.562;14.440;2023-05-07T02:25:39;93839.00;;;19.60
41593;BMP180;28026;48.562;14.440;2023-05-07T02:28:09;93840.00;;;19.60
41593;BMP180;28026;48.562;14.440;2023-05-07T02:30:40;93837.00;;;19.60
41593;BMP180;28026;48.562;14.440;2023-05-07T02:33:11;93834.00;;;19.60
41593;BMP180;28026;48.562;14.440;2023-05-07T02:35:44;93847.00;;;19.50
41593;BMP180;28026;48.562;14.440;2023-05-07T02:38:15;93845.00;;;19.60
41593;BMP180;28026;48.562;14.440;2023-05-07T02:40:45;93846.00;;;19.60
41593;BMP180;28026;48.562;14.440;2023-05-07T02:43:16;93838.00;;;19.60
41593;BMP180;28026;48.562;14.440;2023-05-07T02:45:47;93827.00;;;19.60
41593;BMP180;28026;48.562;14.440;2023-05-07T02:48:18;93832.00;;;19.60
41593;BMP180;28026;48.562;14.440;2023-05-07T02:50:49;93836.00;;;19.50
41593;BMP180;28026;48.562;14.440;2023-05-07T02:53:19;93828.00;;;19.50
41593;BMP180;28026;48.562;14.440;2023-05-07T02:55:50;93828.00;;;19.50
41593;BMP180;28026;48.562;14.440;2023-05-07T02:58:21;93827.00;;;19.50
41593;BMP180;28026;48.562;14.440;2023-05-07T03:00:52;93825.00;;;19.40
41593;BMP180;28026;48.562;14.440;2023-05-07T03:03:25;93825.00;;;19.40
41593;BMP180;28026;48.562;14.440;2023-05-07T03:05:55;93817.00;;;19.40
41593;BMP180;28026;48.562;14.440;2023-05-07T03:08:26;93826.00;;;19.40
41593;BMP180;28026;48.562;14.440;2023-05-07T03:10:58;93823.00;;;19.30
41593;BMP180;28026;48.562;14.440;2023-05-07T03:13:28;93822.00;;;19.30
41593;BMP180;28026;48.562;14.440;2023-05-07T03:15:59;93813.00;;;19.30
41593;BMP180;28026;48.562;14.440;2023-05-07T03:18:30;93825.00;;;19.30
41593;BMP180;28026;48.562;14.440;2023-05-07T03:21:01;93823.00;;;19.20
41593;BMP180;28026;48.562;14.440;2023-05-07T03:23:31;93811.00;;;19.20
41593;BMP180;28026;48.562;14.440;2023-05-07T03:26:02;93810.00;;;19.10
41593;BMP180;28026;48.562;14.440;2023-05-07T03:28:33;93814.00;;;19.20
41593;BMP180;28026;48.562;14.440;2023-05-07T03:31:04;93825.00;;;19.20
41593;BMP180;28026;48.562;14.440;2023-05-07T03:33:39;93814.00;;;19.20
41593;BMP180;28026;48.562;14.440;2023-05-07T03:36:22;93812.00;;;19.20
41593;BMP180;28026;48.562;14.440;2023-05-07T03:38:53;93819.00;;;19.20
41593;BMP180;28026;48.562;14.440;2023-05-07T03:41:24;93813.00;;;19.20
41593;BMP180;28026;48.562;14.440;2023-05-07T03:43:56;93819.00;;;19.20
41593;BMP180;28026;48.562;14.440;2023-05-07T03:46:27;93822.00;;;19.10
41593;BMP180;28026;48.562;14.440;2023-05-07T03:48:58;93821.00;;;19.10
41593;BMP180;28026;48.562;14.440;2023-05-07T03:51:30;93827.00;;;19.10
41593;BMP180;28026;48.562;14.440;2023-05-07T03:54:01;93827.00;;;19.10
41593;BMP180;28026;48.562;14.440;2023-05-07T03:56:31;93832.00;;;19.10
41593;BMP180;28026;48.562;14.440;2023-05-07T03:59:02;93842.00;;;19.20
41593;BMP180;28026;48.562;14.440;2023-05-07T04:01:33;93838.00;;;19.20
41593;BMP180;28026;48.562;14.440;2023-05-07T04:04:04;93843.00;;;19.20
41593;BMP180;28026;48.562;14.440;2023-05-07T04:06:35;93856.00;;;19.20
41593;BMP180;28026;48.562;14.440;2023-05-07T04:09:06;93843.00;;;19.20
41593;BMP180;28026;48.562;14.440;2023-05-07T04:11:37;93846.00;;;19.20
41593;BMP180;28026;48.562;14.440;2023-05-07T04:14:07;93839.00;;;19.20
41593;BMP180;28026;48.562;14.440;2023-05-07T04:16:38;93840.00;;;19.30
41593;BMP180;28026;48.562;14.440;2023-05-07T04:19:09;93845.00;;;19.30
41593;BMP180;28026;48.562;14.440;2023-05-07T04:21:40;93845.00;;;19.30
41593;BMP180;28026;48.562;14.440;2023-05-07T04:24:11;93847.00;;;19.30
41593;BMP180;28026;48.562;14.440;2023-05-07T04:26:41;93846.00;;;19.20
41593;BMP180;28026;48.562;14.440;2023-05-07T04:29:12;93841.00;;;19.20
41593;BMP180;28026;48.562;14.440;2023-05-07T04:31:43;93852.00;;;19.20
41593;BMP180;28026;48.562;14.440;2023-05-07T04:34:14;93860.00;;;19.10
41593;BMP180;28026;48.562;14.440;2023-05-07T04:36:45;93852.00;;;19.00
41593;BMP180;28026;48.562;14.440;2023-05-07T04:39:16;93851.00;;;19.00
41593;BMP180;28026;48.562;14.440;2023-05-07T04:41:47;93859.00;;;19.00
41593;BMP180;28026;48.562;14.440;2023-05-07T04:44:18;93862.00;;;18.90
41593;BMP180;28026;48.562;14.440;2023-05-07T04:46:48;93866.00;;;18.90
41593;BMP180;28026;48.562;14.440;2023-05-07T04:49:19;93859.00;;;18.90
41593;BMP180;28026;48.562;14.440;2023-05-07T04:51:50;93876.00;;;18.90
41593;BMP180;28026;48.562;14.440;2023-05-07T04:54:21;93880.00;;;18.90
41593;BMP180;28026;48.562;14.440;2023-05-07T04:56:51;93874.00;;;19.00
41593;BMP180;28026;48.562;14.440;2023-05-07T04:59:22;93874.00;;;19.10
41593;BMP180;28026;48.562;14.440;2023-05-07T05:01:53;93876.00;;;19.20
41593;BMP180;28026;48.562;14.440;2023-05-07T05:04:24;93874.00;;;19.30
41593;BMP180;28026;48.562;14.440;2023-05-07T05:06:54;93867.00;;;19.40
41593;BMP180;28026;48.562;14.440;2023-05-07T05:09:25;93868.00;;;19.40
41593;BMP180;28026;48.562;14.440;2023-05-07T05:11:56;93881.00;;;19.50
41593;BMP180;28026;48.562;14.440;2023-05-07T05:14:27;93882.00;;;19.50
41593;BMP180;28026;48.562;14.440;2023-05-07T05:16:58;93883.00;;;19.60
41593;BMP180;28026;48.562;14.440;2023-05-07T05:19:28;93889.00;;;19.60
41593;BMP180;28026;48.562;14.440;2023-05-07T05:21:59;93884.00;;;19.70
41593;BMP180;28026;48.562;14.440;2023-05-07T05:24:31;93892.00;;;19.70
41593;BMP180;28026;48.562;14.440;2023-05-07T05:27:02;93884.00;;;19.80
41593;BMP180;28026;48.562;14.440;2023-05-07T05:29:33;93893.00;;;19.80
41593;BMP180;28026;48.562;14.440;2023-05-07T05:32:04;93888.00;;;19.80
41593;BMP180;28026;48.562;14.440;2023-05-07T05:34:34;93892.00;;;19.80
41593;BMP180;28026;48.562;14.440;2023-05-07T05:37:05;93900.00;;;19.90
41593;BMP180;28026;48.562;14.440;2023-05-07T05:39:36;93885.00;;;19.90
41593;BMP180;28026;48.562;14.440;2023-05-07T05:42:07;93886.00;;;19.90
41593;BMP180;28026;48.562;14.440;2023-05-07T05:44:38;93891.00;;;19.90
41593;BMP180;28026;48.562;14.440;2023-05-07T05:47:08;93880.00;;;19.90
41593;BMP180;28026;48.562;14.440;2023-05-07T05:49:39;93883.00;;;20.00
41593;BMP180;28026;48.562;14.440;2023-05-07T05:52:12;93887.00;;;20.20
41593;BMP180;28026;48.562;14.440;2023-05-07T05:54:44;93881.00;;;20.30
41593;BMP180;28026;48.562;14.440;2023-05-07T05:57:15;93888.00;;;20.50
41593;BMP180;28026;48.562;14.440;2023-05-07T05:59:46;93876.00;;;20.60
41593;BMP180;28026;48.562;14.440;2023-05-07T06:02:17;93887.00;;;20.70
41593;BMP180;28026;48.562;14.440;2023-05-07T06:04:48;93883.00;;;20.80
41593;BMP180;28026;48.562;14.440;2023-05-07T06:07:19;93885.00;;;20.90
41593;BMP180;28026;48.562;14.440;2023-05-07T06:09:50;93882.00;;;21.10
41593;BMP180;28026;48.562;14.440;2023-05-07T06:12:21;93890.00;;;21.20
41593;BMP180;28026;48.562;14.440;2023-05-07T06:14:51;93888.00;;;21.40
41593;BMP180;28026;48.562;14.440;2023-05-07T06:17:22;93889.00;;;21.50
41593;BMP180;28026;48.562;14.440;2023-05-07T06:19:53;93886.00;;;21.70
41593;BMP180;28026;48.562;14.440;2023-05-07T06:22:24;93876.00;;;21.80
41593;BMP180;28026;48.562;14.440;2023-05-07T06:24:55;93887.00;;;21.80
41593;BMP180;28026;48.562;14.440;2023-05-07T06:27:26;93891.00;;;21.90
41593;BMP180;28026;48.562;14.440;2023-05-07T06:29:58;93892.00;;;22.00
41593;BMP180;28026;48.562;14.440;2023-05-07T06:32:29;93888.00;;;22.10
41593;BMP180;28026;48.562;14.440;2023-05-07T06:34:59;93891.00;;;22.20
41593;BMP180;28026;48.562;14.440;2023-05-07T06:37:30;93889.00;;;22.20
41593;BMP180;28026;48.562;14.440;2023-05-07T06:40:01;93891.00;;;22.30
41593;BMP180;28026;48.562;14.440;2023-05-07T06:42:32;93890.00;;;22.40
41593;BMP180;28026;48.562;14.440;2023-05-07T06:45:03;93890.00;;;22.50
41593;BMP180;28026;48.562;14.440;2023-05-07T06:47:35;93900.00;;;22.70
41593;BMP180;28026;48.562;14.440;2023-05-07T06:50:06;93907.00;;;22.90
41593;BMP180;28026;48.562;14.440;2023-05-07T06:52:37;93891.00;;;23.10
41593;BMP180;28026;48.562;14.440;2023-05-07T06:55:08;93903.00;;;23.20
41593;BMP180;28026;48.562;14.440;2023-05-07T06:57:39;93903.00;;;23.30
41593;BMP180;28026;48.562;14.440;2023-05-07T07:00:10;93903.00;;;23.40
41593;BMP180;28026;48.562;14.440;2023-05-07T07:02:42;93905.00;;;23.50
41593;BMP180;28026;48.562;14.440;2023-05-07T07:05:12;93907.00;;;23.60
41593;BMP180;28026;48.562;14.440;2023-05-07T07:07:43;93897.00;;;23.70
41593;BMP180;28026;48.562;14.440;2023-05-07T07:10:14;93913.00;;;23.70
41593;BMP180;28026;48.562;14.440;2023-05-07T07:12:45;93910.00;;;23.70
41593;BMP180;28026;48.562;14.440;2023-05-07T07:15:16;93910.00;;;23.70
41593;BMP180;28026;48.562;14.440;2023-05-07T07:17:48;93915.00;;;23.60
41593;BMP180;28026;48.562;14.440;2023-05-07T07:20:19;93913.00;;;23.60
41593;BMP180;28026;48.562;14.440;2023-05-07T07:22:50;93907.00;;;23.60
41593;BMP180;28026;48.562;14.440;2023-05-07T07:25:20;93920.00;;;23.70
41593;BMP180;28026;48.562;14.440;2023-05-07T07:27:51;93915.00;;;23.70
41593;BMP180;28026;48.562;14.440;2023-05-07T07:30:22;93916.00;;;23.70
41593;BMP180;28026;48.562;14.440;2023-05-07T07:32:53;93911.00;;;23.80
41593;BMP180;28026;48.562;14.440;2023-05-07T07:35:25;93921.00;;;23.90
41593;BMP180;28026;48.562;14.440;2023-05-07T07:37:56;93919.00;;;24.00
41593;BMP180;28026;48.562;14.440;2023-05-07T07:40:27;93913.00;;;24.10
41593;BMP180;28026;48.562;14.440;2023-05-07T07:42:58;93915.00;;;24.20
41593;BMP180;28026;48.562;14.440;2023-05-07T07:45:29;93939.00;;;24.30
41593;BMP180;28026;48.562;14.440;2023-05-07T07:48:00;93939.00;;;24.50
41593;BMP180;28026;48.562;14.440;2023-05-07T07:50:31;93937.00;;;24.70
41593;BMP180;28026;48.562;14.440;2023-05-07T07:53:01;93939.00;;;24.80
41593;BMP180;28026;48.562;14.440;2023-05-07T07:55:38;93936.00;;;25.00
41593;BMP180;28026;48.562;14.440;2023-05-07T07:58:10;93936.00;;;24.90
41593;BMP180;28026;48.562;14.440;2023-05-07T08:00:40;93948.00;;;25.00
41593;BMP180;28026;48.562;14.440;2023-05-07T08:03:11;93947.00;;;25.10
41593;BMP180;28026;48.562;14.440;2023-05-07T08:05:42;93943.00;;;25.30
41593;BMP180;28026;48.562;14.440;2023-05-07T08:08:13;93950.00;;;25.40
41593;BMP180;28026;48.562;14.440;2023-05-07T08:10:44;93946.00;;;25.50
41593;BMP180;28026;48.562;14.440;2023-05-07T08:13:17;93948.00;;;25.60
41593;BMP180;28026;48.562;14.440;2023-05-07T08:15:48;93947.00;;;25.60
41593;BMP180;28026;48.562;14.440;2023-05-07T08:18:19;93950.00;;;25.70
41593;BMP180;28026;48.562;14.440;2023-05-07T08:20:50;93948.00;;;25.60
41593;BMP180;28026;48.562;14.440;2023-05-07T08:23:21;93947.00;;;25.60
41593;BMP180;28026;48.562;14.440;2023-05-07T08:25:53;93954.00;;;25.70
41593;BMP180;28026;48.562;14.440;2023-05-07T08:28:24;93955.00;;;25.80
41593;BMP180;28026;48.562;14.440;2023-05-07T08:30:55;93962.00;;;25.90
41593;BMP180;28026;48.562;14.440;2023-05-07T08:33:27;93955.00;;;25.90
41593;BMP180;28026;48.562;14.440;2023-05-07T08:35:57;93944.00;;;26.10
41593;BMP180;28026;48.562;14.440;2023-05-07T08:38:28;93952.00;;;26.10
41593;BMP180;28026;48.562;14.440;2023-05-07T08:40:59;93959.00;;;26.10
41593;BMP180;28026;48.562;14.440;2023-05-07T08:43:32;93957.00;;;26.10
41593;BMP180;28026;48.562;14.440;2023-05-07T08:46:04;93964.00;;;26.20
41593;BMP180;28026;48.562;14.440;2023-05-07T08:48:35;93949.00;;;26.20
41593;BMP180;28026;48.562;14.440;2023-05-07T08:51:08;93960.00;;;26.30
41593;BMP180;28026;48.562;14.440;2023-05-07T08:53:43;93960.00;;;26.40
41593;BMP180;28026;48.562;14.440;2023-05-07T08:56:15;93957.00;;;26.40
41593;BMP180;28026;48.562;14.440;2023-05-07T08:58:47;93960.00;;;26.50
41593;BMP180;28026;48.562;14.440;2023-05-07T09:01:18;93963.00;;;26.50
41593;BMP180;28026;48.562;14.440;2023-05-07T09:03:49;93978.00;;;26.60
41593;BMP180;28026;48.562;14.440;2023-05-07T09:06:20;93975.00;;;26.70
41593;BMP180;28026;48.562;14.440;2023-05-07T09:08:53;93973.00;;;26.80
41593;BMP180;28026;48.562;14.440;2023-05-07T09:11:25;93977.00;;;26.90
41593;BMP180;28026;48.562;14.440;2023-05-07T09:13:56;93979.00;;;27.00
41593;BMP180;28026;48.562;14.440;2023-05-07T09:16:32;93982.00;;;27.10
41593;BMP180;28026;48.562;14.440;2023-05-07T09:19:03;93977.00;;;27.30
41593;BMP180;28026;48.562;14.440;2023-05-07T09:21:34;93983.00;;;27.50
41593;BMP180;28026;48.562;14.440;2023-05-07T09:24:05;93980.00;;;27.50
41593;BMP180;28026;48.562;14.440;2023-05-07T09:26:36;93982.00;;;27.60
41593;BMP180;28026;48.562;14.440;2023-05-07T09:29:07;93978.00;;;27.70
41593;BMP180;28026;48.562;14.440;2023-05-07T09:31:40;93965.00;;;27.80
41593;BMP180;28026;48.562;14.440;2023-05-07T09:34:11;93960.00;;;28.00
41593;BMP180;28026;48.562;14.440;2023-05-07T09:36:42;93965.00;;;28.00
41593;BMP180;28026;48.562;14.440;2023-05-07T09:39:13;93965.00;;;27.90
41593;BMP180;28026;48.562;14.440;2023-05-07T09:41:46;93963.00;;;27.80
41593;BMP180;28026;48.562;14.440;2023-05-07T09:44:18;93965.00;;;27.80
41593;BMP180;28026;48.562;14.440;2023-05-07T09:46:53;93971.00;;;27.90
41593;BMP180;28026;48.562;14.440;2023-05-07T09:49:29;93971.00;;;27.80
41593;BMP180;28026;48.562;14.440;2023-05-07T09:52:02;93980.00;;;27.80
41593;BMP180;28026;48.562;14.440;2023-05-07T09:54:36;93979.00;;;27.80
41593;BMP180;28026;48.562;14.440;2023-05-07T09:57:11;93976.00;;;27.90
41593;BMP180;28026;48.562;14.440;2023-05-07T09:59:45;93973.00;;;28.00
41593;BMP180;28026;48.562;14.440;2023-05-07T10:02:18;93972.00;;;28.20
41593;BMP180;28026;48.562;14.440;2023-05-07T10:04:50;93977.00;;;28.20
41593;BMP180;28026;48.562;14.440;2023-05-07T10:07:22;93984.00;;;28.30
41593;BMP180;28026;48.562;14.440;2023-05-07T10:09:54;93980.00;;;28.50
41593;BMP180;28026;48.562;14.440;2023-05-07T10:12:26;93984.00;;;28.60
41593;BMP180;28026;48.562;14.440;2023-05-07T10:14:58;93990.00;;;28.70
41593;BMP180;28026;48.562;14.440;2023-05-07T10:17:29;93982.00;;;28.70
41593;BMP180;28026;48.562;14.440;2023-05-07T10:20:00;93994.00;;;28.60
41593;BMP180;28026;48.562;14.440;2023-05-07T10:22:43;93981.00;;;28.70
41593;BMP180;28026;48.562;14.440;2023-05-07T10:25:30;93978.00;;;28.80
41593;BMP180;28026;48.562;14.440;2023-05-07T10:28:06;93970.00;;;28.70
41593;BMP180;28026;48.562;14.440;2023-05-07T10:31:03;93978.00;;;28.90
41593;BMP180;28026;48.562;14.440;2023-05-07T10:33:47;93978.00;;;29.00
41593;BMP180;28026;48.562;14.440;2023-05-07T10:36:22;93968.00;;;29.10
41593;BMP180;28026;48.562;14.440;2023-05-07T10:38:54;93970.00;;;29.20
41593;BMP180;28026;48.562;14.440;2023-05-07T10:41:25;93970.00;;;29.30
41593;BMP180;28026;48.562;14.440;2023-05-07T10:43:56;93968.00;;;29.30
41593;BMP180;28026;48.562;14.440;2023-05-07T10:46:27;93972.00;;;29.40
41593;BMP180;28026;48.562;14.440;2023-05-07T10:51:37;93963.00;;;29.50
41593;BMP180;28026;48.562;14.440;2023-05-07T10:56:43;93964.00;;;29.50
41593;BMP180;28026;48.562;14.440;2023-05-07T11:01:56;93972.00;;;29.70
41593;BMP180;28026;48.562;14.440;2023-05-07T11:04:28;93962.00;;;29.90
41593;BMP180;28026;48.562;14.440;2023-05-07T11:17:57;93961.00;;;30.30
41593;BMP180;28026;48.562;14.440;2023-05-07T11:26:05;93955.00;;;30.50
41593;BMP180;28026;48.562;14.440;2023-05-07T11:28:42;93947.00;;;30.60
41593;BMP180;28026;48.562;14.440;2023-05-07T11:31:13;93951.00;;;30.60
41593;BMP180;28026;48.562;14.440;2023-05-07T11:33:45;93950.00;;;30.70
41593;BMP180;28026;48.562;14.440;2023-05-07T11:36:17;93947.00;;;30.80
41593;BMP180;28026;48.562;14.440;2023-05-07T11:38:50;93943.00;;;30.80
41593;BMP180;28026;48.562;14.440;2023-05-07T11:41:21;93947.00;;;30.80
41593;BMP180;28026;48.562;14.440;2023-05-07T11:43:56;93953.00;;;30.70
41593;BMP180;28026;48.562;14.440;2023-05-07T11:46:28;93951.00;;;30.70
41593;BMP180;28026;48.562;14.440;2023-05-07T11:49:00;93940.00;;;30.80
41593;BMP180;28026;48.562;14.440;2023-05-07T11:51:31;93945.00;;;30.80
41593;BMP180;28026;48.562;14.440;2023-05-07T11:54:04;93945.00;;;31.00
41593;BMP180;28026;48.562;14.440;2023-05-07T11:56:38;93938.00;;;31.00
41593;BMP180;28026;48.562;14.440;2023-05-07T11:59:10;93940.00;;;31.10
41593;BMP180;28026;48.562;14.440;2023-05-07T12:01:40;93949.00;;;31.10
41593;BMP180;28026;48.562;14.440;2023-05-07T12:04:19;93942.00;;;30.90
41593;BMP180;28026;48.562;14.440;2023-05-07T12:06:54;93921.00;;;30.80
41593;BMP180;28026;48.562;14.440;2023-05-07T12:09:26;93939.00;;;30.90
41593;BMP180;28026;48.562;14.440;2023-05-07T12:11:57;93936.00;;;30.90
41593;BMP180;28026;48.562;14.440;2023-05-07T12:14:32;93935.00;;;30.90
41593;BMP180;28026;48.562;14.440;2023-05-07T12:17:08;93945.00;;;30.90
41593;BMP180;28026;48.562;14.440;2023-05-07T12:19:43;93944.00;;;30.90
41593;BMP180;28026;48.562;14.440;2023-05-07T12:22:15;93950.00;;;31.00
41593;BMP180;28026;48.562;14.440;2023-05-07T12:24:47;93942.00;;;31.10
41593;BMP180;28026;48.562;14.440;2023-05-07T12:27:28;93945.00;;;31.10
41593;BMP180;28026;48.562;14.440;2023-05-07T12:29:59;93940.00;;;31.20
41593;BMP180;28026;48.562;14.440;2023-05-07T12:32:30;93948.00;;;31.30
41593;BMP180;28026;48.562;14.440;2023-05-07T12:35:01;93952.00;;;31.30
41593;BMP180;28026;48.562;14.440;2023-05-07T12:37:32;93952.00;;;31.20
41593;BMP180;28026;48.562;14.440;2023-05-07T12:40:06;93942.00;;;31.20
41593;BMP180;28026;48.562;14.440;2023-05-07T12:42:40;93935.00;;;31.20
41593;BMP180;28026;48.562;14.440;2023-05-07T12:45:12;93945.00;;;31.30
41593;BMP180;28026;48.562;14.440;2023-05-07T12:47:47;93939.00;;;31.30
41593;BMP180;28026;48.562;14.440;2023-05-07T12:50:18;93945.00;;;31.40
41593;BMP180;28026;48.562;14.440;2023-05-07T12:52:49;93939.00;;;31.40
41593;BMP180;28026;48.562;14.440;2023-05-07T12:55:20;93943.00;;;31.50
41593;BMP180;28026;48.562;14.440;2023-05-07T12:57:52;93947.00;;;31.50
41593;BMP180;28026;48.562;14.440;2023-05-07T13:00:34;93949.00;;;31.50
41593;BMP180;28026;48.562;14.440;2023-05-07T13:03:08;93941.00;;;31.60
41593;BMP180;28026;48.562;14.440;2023-05-07T13:05:39;93948.00;;;31.70
41593;BMP180;28026;48.562;14.440;2023-05-07T13:08:10;93948.00;;;31.70
41593;BMP180;28026;48.562;14.440;2023-05-07T13:10:41;93945.00;;;31.60
41593;BMP180;28026;48.562;14.440;2023-05-07T13:13:11;93933.00;;;31.50
41593;BMP180;28026;48.562;14.440;2023-05-07T13:15:42;93938.00;;;31.40
41593;BMP180;28026;48.562;14.440;2023-05-07T13:18:13;93939.00;;;31.40
41593;BMP180;28026;48.562;14.440;2023-05-07T13:20:45;93937.00;;;31.40
41593;BMP180;28026;48.562;14.440;2023-05-07T13:23:15;93931.00;;;31.40
41593;BMP180;28026;48.562;14.440;2023-05-07T13:25:47;93929.00;;;31.40
41593;BMP180;28026;48.562;14.440;2023-05-07T13:28:18;93924.00;;;31.30
41593;BMP180;28026;48.562;14.440;2023-05-07T13:30:50;93927.00;;;31.20
41593;BMP180;28026;48.562;14.440;2023-05-07T13:33:22;93928.00;;;31.30
41593;BMP180;28026;48.562;14.440;2023-05-07T13:35:54;93925.00;;;31.40
41593;BMP180;28026;48.562;14.440;2023-05-07T13:38:27;93912.00;;;31.60
41593;BMP180;28026;48.562;14.440;2023-05-07T13:40:58;93911.00;;;31.50
41593;BMP180;28026;48.562;14.440;2023-05-07T13:43:28;93907.00;;;31.40
41593;BMP180;28026;48.562;14.440;2023-05-07T13:46:00;93923.00;;;31.20
41593;BMP180;28026;48.562;14.440;2023-05-07T13:48:31;93922.00;;;31.10
41593;BMP180;28026;48.562;14.440;2023-05-07T13:51:02;93910.00;;;30.80
41593;BMP180;28026;48.562;14.440;2023-05-07T13:53:33;93910.00;;;30.50
41593;BMP180;28026;48.562;14.440;2023-05-07T13:56:04;93924.00;;;30.20
41593;BMP180;28026;48.562;14.440;2023-05-07T13:58:35;93907.00;;;29.90
41593;BMP180;28026;48.562;14.440;2023-05-07T14:01:06;93915.00;;;29.70
41593;BMP180;28026;48.562;14.440;2023-05-07T14:03:37;93903.00;;;29.50
41593;BMP180;28026;48.562;14.440;2023-05-07T14:06:09;93907.00;;;29.30
41593;BMP180;28026;48.562;14.440;2023-05-07T14:08:40;93919.00;;;29.00
41593;BMP180;28026;48.562;14.440;2023-05-07T14:11:11;93898.00;;;28.70
41593;BMP180;28026;48.562;14.440;2023-05-07T14:13:42;93901.00;;;28.70
41593;BMP180;28026;48.562;14.440;2023-05-07T14:16:13;93915.00;;;29.00
41593;BMP180;28026;48.562;14.440;2023-05-07T14:18:44;93901.00;;;29.20
41593;BMP180;28026;48.562;14.440;2023-05-07T14:21:15;93907.00;;;29.30
41593;BMP180;28026;48.562;14.440;2023-05-07T14:23:45;93898.00;;;29.40
41593;BMP180;28026;48.562;14.440;2023-05-07T14:26:17;93907.00;;;29.40
41593;BMP180;28026;48.562;14.440;2023-05-07T14:28:47;93911.00;;;29.40
41593;BMP180;28026;48.562;14.440;2023-05-07T14:31:18;93904.00;;;29.50
41593;BMP180;28026;48.562;14.440;2023-05-07T14:33:49;93906.00;;;29.70
41593;BMP180;28026;48.562;14.440;2023-05-07T14:36:20;93911.00;;;29.80
41593;BMP180;28026;48.562;14.440;2023-05-07T14:38:53;93913.00;;;29.80
41593;BMP180;28026;48.562;14.440;2023-05-07T14:41:25;93915.00;;;29.80
41593;BMP180;28026;48.562;14.440;2023-05-07T14:43:55;93915.00;;;29.70
41593;BMP180;28026;48.562;14.440;2023-05-07T14:46:26;93916.00;;;29.70